sensor_id;sensor_type;location;lat;lon;timestamp;P1;durP1;ratioP1;P2;durP2;ratioP2
67721;SDS011;58309;45.292;11.820;2023-02-03T00:00:19;729.42;;;188.75;;
67721;SDS011;58309;45.292;11.820;2023-02-03T00:02:44;695.60;;;184.73;;
67721;SDS011;58309;45.292;11.820;2023-02-03T00:05:10;712.28;;;189.45;;
67721;SDS011;58309;45.292;11.820;2023-02-03T00:07:36;669.28;;;185.45;;
67721;SDS011;58309;45.292;11.820;2023-02-03T00:10:03;740.15;;;197.63;;
67721;SDS011;58309;45.292;11.820;2023-02-03T00:12:29;761.45;;;203.30;;
67721;SDS011;58309;45.292;11.820;2023-02-03T00:14:55;745.40;;;203.40;;
67721;SDS011;58309;45.292;11.820;2023-02-03T00:17:20;761.88;;;195.30;;
67721;SDS011;58309;45.292;11.820;2023-02-03T00:19:46;717.60;;;192.73;;
67721;SDS011;58309;45.292;11.820;2023-02-03T00:22:11;786.53;;;202.93;;
67721;SDS011;58309;45.292;11.820;2023-02-03T00:24:37;775.95;;;192.23;;
67721;SDS011;58309;45.292;11.820;2023-02-03T00:27:03;728.95;;;181.20;;
67721;SDS011;58309;45.292;11.820;2023-02-03T00:29:28;719.53;;;181.27;;
67721;SDS011;58309;45.292;11.820;2023-02-03T00:31:54;751.85;;;194.05;;
67721;SDS011;58309;45.292;11.820;2023-02-03T00:34:20;808.47;;;199.27;;
67721;SDS011;58309;45.292;11.820;2023-02-03T00:36:46;745.30;;;188.00;;
67721;SDS011;58309;45.292;11.820;2023-02-03T00:39:13;782.78;;;201.15;;
67721;SDS011;58309;45.292;11.820;2023-02-03T00:41:41;802.88;;;196.35;;
67721;SDS011;58309;45.292;11.820;2023-02-03T00:44:06;817.47;;;205.02;;
67721;SDS011;58309;45.292;11.820;2023-02-03T00:46:32;854.58;;;214.15;;
67721;SDS011;58309;45.292;11.820;2023-02-03T00:49:00;849.25;;;208.30;;
67721;SDS011;58309;45.292;11.820;2023-02-03T00:51:26;894.28;;;212.90;;
67721;SDS011;58309;45.292;11.820;2023-02-03T00:53:52;873.20;;;213.57;;
67721;SDS011;58309;45.292;11.820;2023-02-03T00:56:17;828.30;;;203.98;;
67721;SDS011;58309;45.292;11.820;2023-02-03T00:58:43;836.50;;;201.07;;
67721;SDS011;58309;45.292;11.820;2023-02-03T01:01:08;806.80;;;187.68;;
67721;SDS011;58309;45.292;11.820;2023-02-03T01:03:34;781.50;;;189.55;;
67721;SDS011;58309;45.292;11.820;2023-02-03T01:08:38;822.60;;;183.27;;
67721;SDS011;58309;45.292;11.820;2023-02-03T01:11:07;832.22;;;197.32;;
67721;SDS011;58309;45.292;11.820;2023-02-03T01:13:34;886.75;;;212.23;;
67721;SDS011;58309;45.292;11.820;2023-02-03T01:15:59;901.63;;;214.52;;
67721;SDS011;58309;45.292;11.820;2023-02-03T01:18:25;883.50;;;208.98;;
67721;SDS011;58309;45.292;11.820;2023-02-03T01:20:51;906.45;;;209.73;;
67721;SDS011;58309;45.292;11.820;2023-02-03T01:23:16;911.63;;;209.98;;
67721;SDS011;58309;45.292;11.820;2023-02-03T01:25:42;916.95;;;206.18;;
67721;SDS011;58309;45.292;11.820;2023-02-03T01:28:07;914.83;;;207.70;;
67721;SDS011;58309;45.292;11.820;2023-02-03T01:30:33;886.10;;;199.23;;
67721;SDS011;58309;45.292;11.820;2023-02-03T01:32:58;853.00;;;199.70;;
67721;SDS011;58309;45.292;11.820;2023-02-03T01:35:24;872.55;;;200.60;;
67721;SDS011;58309;45.292;11.820;2023-02-03T01:37:50;870.75;;;202.70;;
67721;SDS011;58309;45.292;11.820;2023-02-03T01:40:15;869.22;;;204.00;;
67721;SDS011;58309;45.292;11.820;2023-02-03T01:42:41;867.58;;;196.30;;
67721;SDS011;58309;45.292;11.820;2023-02-03T01:45:07;861.63;;;196.13;;
67721;SDS011;58309;45.292;11.820;2023-02-03T01:47:34;814.50;;;193.57;;
67721;SDS011;58309;45.292;11.820;2023-02-03T01:50:17;771.72;;;179.98;;
67721;SDS011;58309;45.292;11.820;2023-02-03T01:52:51;768.60;;;180.93;;
67721;SDS011;58309;45.292;11.820;2023-02-03T01:55:22;725.75;;;178.13;;
67721;SDS011;58309;45.292;11.820;2023-02-03T01:57:57;675.70;;;169.07;;
67721;SDS011;58309;45.292;11.820;2023-02-03T02:00:28;735.20;;;174.23;;
67721;SDS011;58309;45.292;11.820;2023-02-03T02:02:54;711.85;;;170.77;;
67721;SDS011;58309;45.292;11.820;2023-02-03T02:07:55;682.60;;;166.00;;
67721;SDS011;58309;45.292;11.820;2023-02-03T02:10:22;688.97;;;168.30;;
67721;SDS011;58309;45.292;11.820;2023-02-03T02:12:48;673.78;;;163.63;;
67721;SDS011;58309;45.292;11.820;2023-02-03T02:15:14;677.15;;;167.63;;
67721;SDS011;58309;45.292;11.820;2023-02-03T02:34:44;629.85;;;148.02;;
67721;SDS011;58309;45.292;11.820;2023-02-03T02:40:08;598.22;;;147.77;;
67721;SDS011;58309;45.292;11.820;2023-02-03T02:43:10;611.75;;;146.13;;
67721;SDS011;58309;45.292;11.820;2023-02-03T02:51:17;665.15;;;150.85;;
67721;SDS011;58309;45.292;11.820;2023-02-03T02:53:50;673.15;;;153.38;;
67721;SDS011;58309;45.292;11.820;2023-02-03T02:56:20;705.70;;;162.50;;
67721;SDS011;58309;45.292;11.820;2023-02-03T02:58:48;712.67;;;162.55;;
67721;SDS011;58309;45.292;11.820;2023-02-03T03:01:15;697.33;;;165.00;;
67721;SDS011;58309;45.292;11.820;2023-02-03T03:03:41;707.05;;;162.48;;
67721;SDS011;58309;45.292;11.820;2023-02-03T03:06:23;666.45;;;154.52;;
67721;SDS011;58309;45.292;11.820;2023-02-03T03:08:57;671.03;;;156.38;;
67721;SDS011;58309;45.292;11.820;2023-02-03T03:11:29;642.50;;;153.25;;
67721;SDS011;58309;45.292;11.820;2023-02-03T03:13:57;690.08;;;165.98;;
67721;SDS011;58309;45.292;11.820;2023-02-03T03:16:26;702.90;;;160.60;;
67721;SDS011;58309;45.292;11.820;2023-02-03T03:19:04;743.75;;;174.20;;
67721;SDS011;58309;45.292;11.820;2023-02-03T03:21:39;721.38;;;167.45;;
67721;SDS011;58309;45.292;11.820;2023-02-03T03:24:14;753.60;;;175.15;;
67721;SDS011;58309;45.292;11.820;2023-02-03T03:26:49;700.08;;;167.63;;
67721;SDS011;58309;45.292;11.820;2023-02-03T03:29:21;683.25;;;158.30;;
67721;SDS011;58309;45.292;11.820;2023-02-03T03:31:53;677.65;;;152.23;;
67721;SDS011;58309;45.292;11.820;2023-02-03T03:34:19;634.55;;;144.80;;
67721;SDS011;58309;45.292;11.820;2023-02-03T03:36:57;637.53;;;144.77;;
67721;SDS011;58309;45.292;11.820;2023-02-03T03:42:11;599.55;;;136.23;;
67721;SDS011;58309;45.292;11.820;2023-02-03T03:44:56;611.55;;;139.20;;
67721;SDS011;58309;45.292;11.820;2023-02-03T03:47:38;692.25;;;159.60;;
67721;SDS011;58309;45.292;11.820;2023-02-03T03:50:13;706.13;;;154.63;;
67721;SDS011;58309;45.292;11.820;2023-02-03T03:52:45;675.92;;;146.13;;
67721;SDS011;58309;45.292;11.820;2023-02-03T03:55:14;709.20;;;150.25;;
67721;SDS011;58309;45.292;11.820;2023-02-03T03:57:47;694.50;;;149.43;;
67721;SDS011;58309;45.292;11.820;2023-02-03T04:00:21;685.30;;;146.88;;
67721;SDS011;58309;45.292;11.820;2023-02-03T04:02:50;675.95;;;144.23;;
67721;SDS011;58309;45.292;11.820;2023-02-03T04:05:19;693.35;;;145.55;;
67721;SDS011;58309;45.292;11.820;2023-02-03T04:07:46;658.35;;;140.45;;
67721;SDS011;58309;45.292;11.820;2023-02-03T04:10:18;648.15;;;138.82;;
67721;SDS011;58309;45.292;11.820;2023-02-03T04:12:55;683.70;;;142.32;;
67721;SDS011;58309;45.292;11.820;2023-02-03T04:15:21;730.38;;;154.07;;
67721;SDS011;58309;45.292;11.820;2023-02-03T04:17:47;765.58;;;156.85;;
67721;SDS011;58309;45.292;11.820;2023-02-03T04:20:13;815.50;;;155.48;;
67721;SDS011;58309;45.292;11.820;2023-02-03T04:22:38;805.15;;;159.75;;
67721;SDS011;58309;45.292;11.820;2023-02-03T04:25:04;866.10;;;169.20;;
67721;SDS011;58309;45.292;11.820;2023-02-03T04:27:30;837.03;;;171.68;;
67721;SDS011;58309;45.292;11.820;2023-02-03T04:29:55;848.60;;;165.80;;
67721;SDS011;58309;45.292;11.820;2023-02-03T04:32:21;898.53;;;169.05;;
67721;SDS011;58309;45.292;11.820;2023-02-03T04:34:46;899.80;;;176.35;;
67721;SDS011;58309;45.292;11.820;2023-02-03T04:37:12;889.08;;;163.15;;
67721;SDS011;58309;45.292;11.820;2023-02-03T04:39:37;877.05;;;160.88;;
67721;SDS011;58309;45.292;11.820;2023-02-03T04:42:03;877.40;;;166.27;;
67721;SDS011;58309;45.292;11.820;2023-02-03T04:44:29;851.15;;;167.77;;
67721;SDS011;58309;45.292;11.820;2023-02-03T04:46:54;875.67;;;167.43;;
67721;SDS011;58309;45.292;11.820;2023-02-03T04:49:20;865.80;;;163.98;;
67721;SDS011;58309;45.292;11.820;2023-02-03T04:51:47;877.67;;;171.23;;
67721;SDS011;58309;45.292;11.820;2023-02-03T04:54:13;847.75;;;176.63;;
67721;SDS011;58309;45.292;11.820;2023-02-03T04:56:39;816.63;;;170.30;;
67721;SDS011;58309;45.292;11.820;2023-02-03T04:59:05;841.38;;;177.43;;
67721;SDS011;58309;45.292;11.820;2023-02-03T05:01:30;806.97;;;181.93;;
67721;SDS011;58309;45.292;11.820;2023-02-03T05:03:56;783.63;;;170.35;;
67721;SDS011;58309;45.292;11.820;2023-02-03T05:06:25;763.55;;;167.75;;
67721;SDS011;58309;45.292;11.820;2023-02-03T05:08:56;736.00;;;165.60;;
67721;SDS011;58309;45.292;11.820;2023-02-03T05:11:22;722.75;;;169.82;;
67721;SDS011;58309;45.292;11.820;2023-02-03T05:13:48;723.38;;;174.75;;
67721;SDS011;58309;45.292;11.820;2023-02-03T05:16:14;732.28;;;167.80;;
67721;SDS011;58309;45.292;11.820;2023-02-03T05:18:40;711.00;;;162.68;;
67721;SDS011;58309;45.292;11.820;2023-02-03T05:21:06;756.95;;;175.23;;
67721;SDS011;58309;45.292;11.820;2023-02-03T05:23:31;721.20;;;171.50;;
67721;SDS011;58309;45.292;11.820;2023-02-03T05:25:57;767.63;;;173.30;;
67721;SDS011;58309;45.292;11.820;2023-02-03T05:28:23;771.22;;;173.20;;
67721;SDS011;58309;45.292;11.820;2023-02-03T05:30:48;730.63;;;166.38;;
67721;SDS011;58309;45.292;11.820;2023-02-03T05:33:14;742.85;;;172.88;;
67721;SDS011;58309;45.292;11.820;2023-02-03T05:35:39;708.42;;;167.52;;
67721;SDS011;58309;45.292;11.820;2023-02-03T05:38:05;710.35;;;160.88;;
67721;SDS011;58309;45.292;11.820;2023-02-03T05:40:31;676.42;;;166.02;;
67721;SDS011;58309;45.292;11.820;2023-02-03T05:43:15;660.75;;;159.15;;
67721;SDS011;58309;45.292;11.820;2023-02-03T05:45:40;679.45;;;158.75;;
67721;SDS011;58309;45.292;11.820;2023-02-03T05:48:06;655.83;;;156.73;;
67721;SDS011;58309;45.292;11.820;2023-02-03T05:50:32;652.58;;;156.48;;
67721;SDS011;58309;45.292;11.820;2023-02-03T05:52:58;642.72;;;148.13;;
67721;SDS011;58309;45.292;11.820;2023-02-03T05:55:24;621.47;;;145.45;;
67721;SDS011;58309;45.292;11.820;2023-02-03T05:57:51;633.85;;;145.68;;
67721;SDS011;58309;45.292;11.820;2023-02-03T06:00:16;632.53;;;146.00;;
67721;SDS011;58309;45.292;11.820;2023-02-03T06:02:42;625.70;;;145.57;;
67721;SDS011;58309;45.292;11.820;2023-02-03T06:05:08;653.45;;;153.32;;
67721;SDS011;58309;45.292;11.820;2023-02-03T06:07:33;637.33;;;151.77;;
67721;SDS011;58309;45.292;11.820;2023-02-03T06:09:59;645.53;;;154.95;;
67721;SDS011;58309;45.292;11.820;2023-02-03T06:12:25;619.35;;;148.70;;
67721;SDS011;58309;45.292;11.820;2023-02-03T06:14:50;628.35;;;149.80;;
67721;SDS011;58309;45.292;11.820;2023-02-03T06:17:16;637.22;;;154.40;;
67721;SDS011;58309;45.292;11.820;2023-02-03T06:19:41;633.85;;;152.15;;
67721;SDS011;58309;45.292;11.820;2023-02-03T06:22:07;598.90;;;148.90;;
67721;SDS011;58309;45.292;11.820;2023-02-03T06:24:32;605.90;;;148.70;;
67721;SDS011;58309;45.292;11.820;2023-02-03T06:26:57;596.40;;;144.77;;
67721;SDS011;58309;45.292;11.820;2023-02-03T06:29:23;594.05;;;149.15;;
67721;SDS011;58309;45.292;11.820;2023-02-03T06:31:49;561.65;;;146.60;;
67721;SDS011;58309;45.292;11.820;2023-02-03T06:34:14;550.80;;;145.13;;
67721;SDS011;58309;45.292;11.820;2023-02-03T06:36:40;547.15;;;143.45;;
67721;SDS011;58309;45.292;11.820;2023-02-03T06:39:05;517.75;;;141.02;;
67721;SDS011;58309;45.292;11.820;2023-02-03T06:41:31;500.45;;;132.77;;
67721;SDS011;58309;45.292;11.820;2023-02-03T06:43:56;462.98;;;127.68;;
67721;SDS011;58309;45.292;11.820;2023-02-03T06:46:22;468.27;;;131.82;;
67721;SDS011;58309;45.292;11.820;2023-02-03T06:48:52;444.77;;;126.28;;
67721;SDS011;58309;45.292;11.820;2023-02-03T06:51:17;429.95;;;124.50;;
67721;SDS011;58309;45.292;11.820;2023-02-03T06:53:43;430.30;;;127.72;;
67721;SDS011;58309;45.292;11.820;2023-02-03T06:56:08;437.70;;;128.02;;
67721;SDS011;58309;45.292;11.820;2023-02-03T06:58:34;416.80;;;123.70;;
67721;SDS011;58309;45.292;11.820;2023-02-03T07:00:59;403.70;;;126.38;;
67721;SDS011;58309;45.292;11.820;2023-02-03T07:03:25;352.38;;;118.25;;
67721;SDS011;58309;45.292;11.820;2023-02-03T07:05:51;354.40;;;116.85;;
67721;SDS011;58309;45.292;11.820;2023-02-03T07:08:16;359.25;;;116.47;;
67721;SDS011;58309;45.292;11.820;2023-02-03T07:10:42;333.65;;;113.15;;
67721;SDS011;58309;45.292;11.820;2023-02-03T07:13:07;314.35;;;107.03;;
67721;SDS011;58309;45.292;11.820;2023-02-03T07:15:33;331.20;;;108.85;;
67721;SDS011;58309;45.292;11.820;2023-02-03T07:17:59;311.25;;;106.50;;
67721;SDS011;58309;45.292;11.820;2023-02-03T07:20:25;312.52;;;107.32;;
67721;SDS011;58309;45.292;11.820;2023-02-03T07:22:53;313.58;;;103.88;;
67721;SDS011;58309;45.292;11.820;2023-02-03T07:25:19;292.63;;;104.50;;
67721;SDS011;58309;45.292;11.820;2023-02-03T07:27:45;277.40;;;101.95;;
67721;SDS011;58309;45.292;11.820;2023-02-03T07:30:12;277.85;;;103.30;;
67721;SDS011;58309;45.292;11.820;2023-02-03T07:32:38;276.77;;;98.82;;
67721;SDS011;58309;45.292;11.820;2023-02-03T07:35:03;271.27;;;101.53;;
67721;SDS011;58309;45.292;11.820;2023-02-03T07:37:29;272.65;;;98.47;;
67721;SDS011;58309;45.292;11.820;2023-02-03T07:39:55;265.00;;;97.53;;
67721;SDS011;58309;45.292;11.820;2023-02-03T07:42:20;259.85;;;96.53;;
67721;SDS011;58309;45.292;11.820;2023-02-03T07:44:46;259.35;;;97.07;;
67721;SDS011;58309;45.292;11.820;2023-02-03T07:47:11;244.90;;;94.95;;
67721;SDS011;58309;45.292;11.820;2023-02-03T07:49:37;242.25;;;92.20;;
67721;SDS011;58309;45.292;11.820;2023-02-03T07:52:03;224.57;;;88.25;;
67721;SDS011;58309;45.292;11.820;2023-02-03T07:54:28;223.85;;;87.20;;
67721;SDS011;58309;45.292;11.820;2023-02-03T07:56:54;232.25;;;89.60;;
67721;SDS011;58309;45.292;11.820;2023-02-03T07:59:19;227.20;;;87.70;;
67721;SDS011;58309;45.292;11.820;2023-02-03T08:01:45;221.32;;;85.45;;
67721;SDS011;58309;45.292;11.820;2023-02-03T08:04:11;221.07;;;86.18;;
67721;SDS011;58309;45.292;11.820;2023-02-03T08:06:40;207.20;;;83.13;;
67721;SDS011;58309;45.292;11.820;2023-02-03T08:09:07;214.68;;;82.43;;
67721;SDS011;58309;45.292;11.820;2023-02-03T08:11:32;205.48;;;78.22;;
67721;SDS011;58309;45.292;11.820;2023-02-03T08:13:58;208.48;;;82.18;;
67721;SDS011;58309;45.292;11.820;2023-02-03T08:16:23;193.45;;;79.30;;
67721;SDS011;58309;45.292;11.820;2023-02-03T08:18:49;200.73;;;76.72;;
67721;SDS011;58309;45.292;11.820;2023-02-03T08:21:14;186.38;;;71.88;;
67721;SDS011;58309;45.292;11.820;2023-02-03T08:23:39;176.48;;;68.93;;
67721;SDS011;58309;45.292;11.820;2023-02-03T08:26:05;169.13;;;67.90;;
67721;SDS011;58309;45.292;11.820;2023-02-03T08:28:31;175.68;;;75.05;;
67721;SDS011;58309;45.292;11.820;2023-02-03T08:30:56;173.48;;;71.32;;
67721;SDS011;58309;45.292;11.820;2023-02-03T08:33:22;165.88;;;67.65;;
67721;SDS011;58309;45.292;11.820;2023-02-03T08:35:48;157.65;;;66.95;;
67721;SDS011;58309;45.292;11.820;2023-02-03T08:38:14;162.73;;;67.50;;
67721;SDS011;58309;45.292;11.820;2023-02-03T08:40:40;167.10;;;70.95;;
67721;SDS011;58309;45.292;11.820;2023-02-03T08:43:06;144.75;;;66.88;;
67721;SDS011;58309;45.292;11.820;2023-02-03T08:45:32;143.20;;;61.85;;
67721;SDS011;58309;45.292;11.820;2023-02-03T08:47:58;128.32;;;60.20;;
67721;SDS011;58309;45.292;11.820;2023-02-03T08:50:23;137.60;;;59.05;;
67721;SDS011;58309;45.292;11.820;2023-02-03T08:52:49;154.20;;;65.10;;
67721;SDS011;58309;45.292;11.820;2023-02-03T08:55:14;142.85;;;62.88;;
67721;SDS011;58309;45.292;11.820;2023-02-03T08:57:40;133.23;;;58.55;;
67721;SDS011;58309;45.292;11.820;2023-02-03T09:00:06;140.25;;;63.45;;
67721;SDS011;58309;45.292;11.820;2023-02-03T09:02:33;147.40;;;63.22;;
67721;SDS011;58309;45.292;11.820;2023-02-03T09:04:58;151.23;;;68.93;;
67721;SDS011;58309;45.292;11.820;2023-02-03T09:07:25;177.27;;;75.28;;
67721;SDS011;58309;45.292;11.820;2023-02-03T09:09:50;166.25;;;69.63;;
67721;SDS011;58309;45.292;11.820;2023-02-03T09:12:16;161.25;;;69.10;;
67721;SDS011;58309;45.292;11.820;2023-02-03T09:14:42;144.75;;;63.75;;
67721;SDS011;58309;45.292;11.820;2023-02-03T09:17:08;170.32;;;69.55;;
67721;SDS011;58309;45.292;11.820;2023-02-03T09:19:34;153.45;;;64.85;;
67721;SDS011;58309;45.292;11.820;2023-02-03T09:22:00;155.10;;;68.05;;
67721;SDS011;58309;45.292;11.820;2023-02-03T09:24:25;172.57;;;73.85;;
67721;SDS011;58309;45.292;11.820;2023-02-03T09:26:51;142.93;;;63.25;;
67721;SDS011;58309;45.292;11.820;2023-02-03T09:29:17;137.75;;;62.13;;
67721;SDS011;58309;45.292;11.820;2023-02-03T09:31:43;140.05;;;65.95;;
67721;SDS011;58309;45.292;11.820;2023-02-03T09:34:11;145.18;;;64.82;;
67721;SDS011;58309;45.292;11.820;2023-02-03T09:36:36;155.43;;;69.88;;
67721;SDS011;58309;45.292;11.820;2023-02-03T09:39:02;150.43;;;65.32;;
67721;SDS011;58309;45.292;11.820;2023-02-03T09:46:33;145.15;;;64.55;;
67721;SDS011;58309;45.292;11.820;2023-02-03T09:56:57;131.25;;;59.95;;
67721;SDS011;58309;45.292;11.820;2023-02-03T09:59:25;130.10;;;58.38;;
67721;SDS011;58309;45.292;11.820;2023-02-03T10:01:57;124.47;;;59.25;;
67721;SDS011;58309;45.292;11.820;2023-02-03T10:04:37;120.78;;;58.05;;
67721;SDS011;58309;45.292;11.820;2023-02-03T10:07:17;126.97;;;58.63;;
67721;SDS011;58309;45.292;11.820;2023-02-03T10:13:13;124.38;;;56.55;;
67721;SDS011;58309;45.292;11.820;2023-02-03T10:15:51;122.38;;;56.45;;
67721;SDS011;58309;45.292;11.820;2023-02-03T10:18:28;128.07;;;61.63;;
67721;SDS011;58309;45.292;11.820;2023-02-03T10:21:02;124.10;;;59.08;;
67721;SDS011;58309;45.292;11.820;2023-02-03T10:23:38;121.50;;;58.92;;
67721;SDS011;58309;45.292;11.820;2023-02-03T10:26:16;121.20;;;58.80;;
67721;SDS011;58309;45.292;11.820;2023-02-03T10:28:54;123.82;;;58.10;;
67721;SDS011;58309;45.292;11.820;2023-02-03T10:31:22;119.60;;;58.70;;
67721;SDS011;58309;45.292;11.820;2023-02-03T10:34:04;123.70;;;55.75;;
67721;SDS011;58309;45.292;11.820;2023-02-03T10:42:04;111.38;;;55.40;;
67721;SDS011;58309;45.292;11.820;2023-02-03T10:44:41;108.32;;;51.40;;
67721;SDS011;58309;45.292;11.820;2023-02-03T10:47:19;111.32;;;52.03;;
67721;SDS011;58309;45.292;11.820;2023-02-03T10:50:00;112.72;;;54.17;;
67721;SDS011;58309;45.292;11.820;2023-02-03T10:52:32;108.70;;;51.47;;
67721;SDS011;58309;45.292;11.820;2023-02-03T10:55:06;108.00;;;52.55;;
67721;SDS011;58309;45.292;11.820;2023-02-03T10:57:54;102.82;;;49.58;;
67721;SDS011;58309;45.292;11.820;2023-02-03T11:00:27;109.25;;;53.55;;
67721;SDS011;58309;45.292;11.820;2023-02-03T11:03:02;103.75;;;50.78;;
67721;SDS011;58309;45.292;11.820;2023-02-03T11:05:31;107.38;;;53.25;;
67721;SDS011;58309;45.292;11.820;2023-02-03T11:07:56;105.55;;;53.72;;
67721;SDS011;58309;45.292;11.820;2023-02-03T11:10:26;107.78;;;52.92;;
67721;SDS011;58309;45.292;11.820;2023-02-03T11:13:23;109.65;;;56.45;;
67721;SDS011;58309;45.292;11.820;2023-02-03T11:21:09;112.88;;;56.60;;
67721;SDS011;58309;45.292;11.820;2023-02-03T11:26:31;115.60;;;58.65;;
67721;SDS011;58309;45.292;11.820;2023-02-03T11:29:04;109.03;;;55.95;;
67721;SDS011;58309;45.292;11.820;2023-02-03T11:31:33;112.15;;;54.08;;
67721;SDS011;58309;45.292;11.820;2023-02-03T11:34:04;110.95;;;56.10;;
67721;SDS011;58309;45.292;11.820;2023-02-03T11:36:38;109.25;;;57.53;;
67721;SDS011;58309;45.292;11.820;2023-02-03T11:39:15;108.28;;;56.53;;
67721;SDS011;58309;45.292;11.820;2023-02-03T11:41:47;110.47;;;57.05;;
67721;SDS011;58309;45.292;11.820;2023-02-03T11:44:17;115.72;;;58.35;;
67721;SDS011;58309;45.292;11.820;2023-02-03T11:46:46;111.45;;;54.58;;
67721;SDS011;58309;45.292;11.820;2023-02-03T11:52:31;108.03;;;55.85;;
67721;SDS011;58309;45.292;11.820;2023-02-03T12:03:52;103.55;;;54.95;;
67721;SDS011;58309;45.292;11.820;2023-02-03T12:15:02;121.45;;;58.00;;
67721;SDS011;58309;45.292;11.820;2023-02-03T12:30:49;111.55;;;56.30;;
67721;SDS011;58309;45.292;11.820;2023-02-03T12:33:26;118.30;;;60.10;;
67721;SDS011;58309;45.292;11.820;2023-02-03T12:36:04;110.32;;;56.22;;
67721;SDS011;58309;45.292;11.820;2023-02-03T12:38:47;114.00;;;59.40;;
67721;SDS011;58309;45.292;11.820;2023-02-03T12:41:20;114.68;;;57.60;;
67721;SDS011;58309;45.292;11.820;2023-02-03T12:44:00;122.55;;;59.78;;
67721;SDS011;58309;45.292;11.820;2023-02-03T12:46:35;120.10;;;61.25;;
67721;SDS011;58309;45.292;11.820;2023-02-03T12:49:14;123.72;;;59.15;;
67721;SDS011;58309;45.292;11.820;2023-02-03T13:02:30;126.13;;;62.70;;
67721;SDS011;58309;45.292;11.820;2023-02-03T13:05:05;127.80;;;62.53;;
67721;SDS011;58309;45.292;11.820;2023-02-03T13:07:46;131.70;;;64.05;;
67721;SDS011;58309;45.292;11.820;2023-02-03T13:10:20;132.23;;;64.00;;
67721;SDS011;58309;45.292;11.820;2023-02-03T13:12:58;127.30;;;63.45;;
67721;SDS011;58309;45.292;11.820;2023-02-03T13:15:26;131.10;;;65.05;;
67721;SDS011;58309;45.292;11.820;2023-02-03T13:20:40;130.55;;;63.50;;
67721;SDS011;58309;45.292;11.820;2023-02-03T13:23:06;129.48;;;64.68;;
67721;SDS011;58309;45.292;11.820;2023-02-03T13:25:49;126.60;;;60.97;;
67721;SDS011;58309;45.292;11.820;2023-02-03T13:34:07;131.27;;;64.70;;
67721;SDS011;58309;45.292;11.820;2023-02-03T13:42:56;133.98;;;60.30;;
67721;SDS011;58309;45.292;11.820;2023-02-03T13:45:28;134.88;;;63.63;;
67721;SDS011;58309;45.292;11.820;2023-02-03T13:47:59;131.25;;;60.63;;
67721;SDS011;58309;45.292;11.820;2023-02-03T13:50:32;130.73;;;61.35;;
67721;SDS011;58309;45.292;11.820;2023-02-03T13:53:02;122.88;;;60.53;;
67721;SDS011;58309;45.292;11.820;2023-02-03T13:55:43;132.23;;;62.33;;
67721;SDS011;58309;45.292;11.820;2023-02-03T13:58:19;136.68;;;63.10;;
67721;SDS011;58309;45.292;11.820;2023-02-03T14:19:04;140.55;;;62.83;;
67721;SDS011;58309;45.292;11.820;2023-02-03T14:24:11;144.77;;;62.55;;
67721;SDS011;58309;45.292;11.820;2023-02-03T14:26:38;148.10;;;63.55;;
67721;SDS011;58309;45.292;11.820;2023-02-03T14:29:22;146.25;;;63.58;;
67721;SDS011;58309;45.292;11.820;2023-02-03T14:32:02;148.15;;;63.58;;
67721;SDS011;58309;45.292;11.820;2023-02-03T14:34:36;147.70;;;64.45;;
67721;SDS011;58309;45.292;11.820;2023-02-03T14:39:46;148.45;;;63.78;;
67721;SDS011;58309;45.292;11.820;2023-02-03T14:42:38;142.68;;;62.03;;
67721;SDS011;58309;45.292;11.820;2023-02-03T14:48:04;152.63;;;64.55;;
67721;SDS011;58309;45.292;11.820;2023-02-03T14:51:00;148.00;;;62.50;;
67721;SDS011;58309;45.292;11.820;2023-02-03T14:58:45;146.30;;;63.22;;
67721;SDS011;58309;45.292;11.820;2023-02-03T15:06:37;151.82;;;61.28;;
67721;SDS011;58309;45.292;11.820;2023-02-03T15:09:11;155.25;;;63.65;;
67721;SDS011;58309;45.292;11.820;2023-02-03T15:11:53;151.55;;;65.03;;
67721;SDS011;58309;45.292;11.820;2023-02-03T15:19:19;147.77;;;60.83;;
67721;SDS011;58309;45.292;11.820;2023-02-03T15:21:48;164.40;;;68.45;;
67721;SDS011;58309;45.292;11.820;2023-02-03T15:24:14;172.02;;;68.43;;
67721;SDS011;58309;45.292;11.820;2023-02-03T15:26:48;171.18;;;68.50;;
67721;SDS011;58309;45.292;11.820;2023-02-03T15:29:23;184.40;;;71.57;;
67721;SDS011;58309;45.292;11.820;2023-02-03T15:31:54;174.07;;;69.93;;
67721;SDS011;58309;45.292;11.820;2023-02-03T15:34:32;165.90;;;66.22;;
67721;SDS011;58309;45.292;11.820;2023-02-03T15:37:02;173.82;;;69.32;;
67721;SDS011;58309;45.292;11.820;2023-02-03T15:45:16;187.95;;;73.88;;
67721;SDS011;58309;45.292;11.820;2023-02-03T15:47:50;190.45;;;74.85;;
67721;SDS011;58309;45.292;11.820;2023-02-03T15:53:05;190.90;;;78.78;;
67721;SDS011;58309;45.292;11.820;2023-02-03T15:55:46;207.60;;;80.93;;
67721;SDS011;58309;45.292;11.820;2023-02-03T15:58:22;202.82;;;77.70;;
67721;SDS011;58309;45.292;11.820;2023-02-03T16:00:54;214.88;;;82.10;;
67721;SDS011;58309;45.292;11.820;2023-02-03T16:03:32;205.85;;;78.60;;
67721;SDS011;58309;45.292;11.820;2023-02-03T16:06:15;211.77;;;77.65;;
67721;SDS011;58309;45.292;11.820;2023-02-03T16:08:47;209.63;;;80.40;;
67721;SDS011;58309;45.292;11.820;2023-02-03T16:14:02;219.63;;;78.35;;
67721;SDS011;58309;45.292;11.820;2023-02-03T16:19:13;221.15;;;84.50;;
67721;SDS011;58309;45.292;11.820;2023-02-03T16:29:53;216.88;;;82.28;;
67721;SDS011;58309;45.292;11.820;2023-02-03T16:32:57;217.07;;;81.78;;
67721;SDS011;58309;45.292;11.820;2023-02-03T16:35:43;215.20;;;81.47;;
67721;SDS011;58309;45.292;11.820;2023-02-03T16:38:27;229.93;;;83.25;;
67721;SDS011;58309;45.292;11.820;2023-02-03T16:41:13;234.88;;;85.47;;
67721;SDS011;58309;45.292;11.820;2023-02-03T16:43:59;255.38;;;91.68;;
67721;SDS011;58309;45.292;11.820;2023-02-03T16:46:43;242.77;;;83.32;;
67721;SDS011;58309;45.292;11.820;2023-02-03T16:49:29;239.68;;;82.95;;
67721;SDS011;58309;45.292;11.820;2023-02-03T16:52:13;252.88;;;86.07;;
67721;SDS011;58309;45.292;11.820;2023-02-03T16:54:39;251.43;;;87.28;;
67721;SDS011;58309;45.292;11.820;2023-02-03T16:57:04;250.32;;;90.45;;
67721;SDS011;58309;45.292;11.820;2023-02-03T16:59:30;258.35;;;89.28;;
67721;SDS011;58309;45.292;11.820;2023-02-03T17:01:55;259.83;;;87.72;;
67721;SDS011;58309;45.292;11.820;2023-02-03T17:04:21;272.85;;;91.60;;
67721;SDS011;58309;45.292;11.820;2023-02-03T17:06:47;277.83;;;93.75;;
67721;SDS011;58309;45.292;11.820;2023-02-03T17:09:15;262.27;;;90.07;;
67721;SDS011;58309;45.292;11.820;2023-02-03T17:11:46;273.13;;;91.50;;